createdAt,value
2023-05-18T00:01:38.552Z,16.77
2023-05-18T00:05:31.818Z,16.71
2023-05-18T00:09:31.747Z,16.72
2023-05-18T00:13:29.473Z,16.98
2023-05-18T00:17:29.828Z,16.91
2023-05-18T00:21:27.521Z,16.86
2023-05-18T00:25:27.953Z,16.87
2023-05-18T00:29:20.408Z,16.81
2023-05-18T00:33:11.646Z,16.15
2023-05-18T00:37:01.016Z,16.31
2023-05-18T00:40:58.309Z,16.21
2023-05-18T00:44:43.592Z,16.21
2023-05-18T00:48:35.212Z,16.28
2023-05-18T00:52:20.166Z,16.25
2023-05-18T00:56:05.707Z,16.27
2023-05-18T00:59:50.841Z,16.13
2023-05-18T01:03:42.125Z,15.92
2023-05-18T01:07:35.954Z,15.88
2023-05-18T01:11:27.152Z,15.82
2023-05-18T01:15:24.406Z,15.64
2023-05-18T01:19:15.808Z,15.68
2023-05-18T01:23:05.063Z,15.67
2023-05-18T01:27:08.862Z,15.63
2023-05-18T01:31:07.981Z,15.57
2023-05-18T01:35:07.906Z,15.51
2023-05-18T01:39:05.391Z,15.43
2023-05-18T01:43:04.754Z,15.39
2023-05-18T01:46:53.904Z,15.49
2023-05-18T01:50:45.079Z,15.35
2023-05-18T01:54:33.996Z,15.29
2023-05-18T01:58:31.128Z,15.40
2023-05-18T02:02:29.862Z,15.36
2023-05-18T02:06:30.936Z,15.42
2023-05-18T02:10:28.695Z,15.46
2023-05-18T02:14:29.025Z,15.51
2023-05-18T02:18:26.256Z,15.56
2023-05-18T02:22:21.188Z,15.51
2023-05-18T02:26:10.083Z,15.49
2023-05-18T02:30:01.148Z,15.46
2023-05-18T02:33:57.000Z,15.50
2023-05-18T02:37:53.970Z,15.50
2023-05-18T02:41:51.452Z,15.49
2023-05-18T02:45:52.181Z,15.53
2023-05-18T02:49:49.755Z,15.72
2023-05-18T02:53:47.668Z,15.80
2023-05-18T02:57:47.836Z,15.94
2023-05-18T03:01:43.785Z,16.08
2023-05-18T03:05:42.407Z,16.22
2023-05-18T03:09:44.507Z,16.40
2023-05-18T03:13:45.957Z,16.61
2023-05-18T03:17:44.528Z,16.80
2023-05-18T03:21:47.450Z,17.03
2023-05-18T03:25:49.086Z,17.16
2023-05-18T03:29:47.438Z,17.32
2023-05-18T03:33:46.384Z,17.56
2023-05-18T03:37:44.495Z,17.71
2023-05-18T03:41:43.551Z,17.89
2023-05-18T03:45:44.979Z,18.14
2023-05-18T03:49:44.627Z,18.59
2023-05-18T03:53:46.430Z,18.78
2023-05-18T03:57:44.457Z,19.24
2023-05-18T04:01:46.489Z,19.60
2023-05-18T04:05:44.523Z,19.93
2023-05-18T04:09:45.971Z,20.47
2023-05-18T04:13:44.669Z,20.72
2023-05-18T04:17:46.579Z,21.19
2023-05-18T04:21:44.559Z,21.63
2023-05-18T04:25:45.516Z,21.98
2023-05-18T04:29:43.574Z,22.36
2023-05-18T04:33:45.738Z,22.80
2023-05-18T04:37:43.611Z,23.06
2023-05-18T04:41:51.626Z,23.30
2023-05-18T04:45:50.780Z,23.70
2023-05-18T04:49:52.686Z,24.17
2023-05-18T04:53:56.109Z,24.43
2023-05-18T04:57:54.719Z,24.85
2023-05-18T05:01:56.231Z,25.17
2023-05-18T05:05:55.633Z,25.47
2023-05-18T05:09:58.781Z,25.72
2023-05-18T05:13:53.837Z,26.03
2023-05-18T05:17:53.476Z,26.41
2023-05-18T05:21:48.825Z,26.60
2023-05-18T05:25:45.262Z,26.89
2023-05-18T05:29:45.115Z,27.19
2023-05-18T05:33:40.841Z,27.39
2023-05-18T05:37:40.182Z,27.67
2023-05-18T05:41:37.815Z,27.81
2023-05-18T05:45:37.570Z,27.93
2023-05-18T05:49:35.685Z,28.05
2023-05-18T05:53:35.871Z,28.29
2023-05-18T05:57:32.336Z,28.49
2023-05-18T06:01:32.027Z,28.68
2023-05-18T06:05:28.059Z,28.79
2023-05-18T06:09:27.977Z,28.87
2023-05-18T06:13:23.949Z,28.98
2023-05-18T06:17:26.717Z,29.15
2023-05-18T06:21:21.965Z,29.36
2023-05-18T06:25:21.633Z,29.58
2023-05-18T06:29:35.030Z,29.74
2023-05-18T06:33:53.094Z,29.86
2023-05-18T06:37:48.900Z,30.09
2023-05-18T06:41:47.960Z,30.30
2023-05-18T06:45:49.998Z,30.32
2023-05-18T06:50:01.443Z,30.61
2023-05-18T06:53:57.252Z,30.90
2023-05-18T06:57:56.635Z,30.91
2023-05-18T07:01:52.036Z,31.03
2023-05-18T07:05:56.800Z,31.24
2023-05-18T07:10:00.603Z,31.59
2023-05-18T07:13:58.830Z,32.06
2023-05-18T07:18:00.394Z,32.48
2023-05-18T07:21:59.020Z,32.76
2023-05-18T07:26:00.335Z,32.76
2023-05-18T07:29:56.274Z,32.80
2023-05-18T07:33:57.918Z,33.00
2023-05-18T07:37:55.879Z,33.23
2023-05-18T07:41:55.140Z,33.36
2023-05-18T07:45:54.053Z,33.50
2023-05-18T07:49:53.478Z,33.63
2023-05-18T07:53:52.889Z,33.80
2023-05-18T07:57:51.301Z,34.05
2023-05-18T08:01:53.028Z,34.22
2023-05-18T08:05:51.941Z,34.36
2023-05-18T08:09:51.441Z,34.33
2023-05-18T08:13:50.017Z,34.29
2023-05-18T08:17:49.419Z,34.48
2023-05-18T08:21:48.053Z,34.81
2023-05-18T08:25:49.449Z,35.01
2023-05-18T08:29:46.521Z,35.12
2023-05-18T08:33:47.974Z,35.22
2023-05-18T08:37:43.349Z,35.24
2023-05-18T08:41:42.774Z,35.40
2023-05-18T08:45:34.115Z,35.58
2023-05-18T08:49:33.117Z,35.59
2023-05-18T08:53:24.220Z,35.57
2023-05-18T08:57:23.109Z,35.59
2023-05-18T09:01:18.534Z,35.43
2023-05-18T09:05:18.037Z,35.48
2023-05-18T09:09:13.508Z,35.48
2023-05-18T09:13:06.665Z,35.42
2023-05-18T09:17:02.514Z,35.68
2023-05-18T09:20:55.881Z,35.63
2023-05-18T09:24:51.422Z,35.66
2023-05-18T09:28:44.765Z,35.68
2023-05-18T09:32:40.447Z,35.84
2023-05-18T09:36:33.915Z,36.01
2023-05-18T09:40:29.309Z,36.10
2023-05-18T09:44:28.101Z,36.03
2023-05-18T09:48:22.767Z,35.95
2023-05-18T09:52:23.444Z,35.95
2023-05-18T09:56:15.618Z,36.04
2023-05-18T10:00:14.782Z,36.18
2023-05-18T10:04:10.324Z,36.20
2023-05-18T10:08:09.265Z,36.07
2023-05-18T10:12:02.455Z,35.90
2023-05-18T10:16:01.850Z,35.86
2023-05-18T10:19:57.347Z,35.89
2023-05-18T10:23:56.329Z,35.74
2023-05-18T10:27:51.660Z,35.67
2023-05-18T10:31:51.028Z,35.64
2023-05-18T10:35:46.356Z,35.82
2023-05-18T10:39:46.076Z,36.09
2023-05-18T10:43:41.400Z,36.01
2023-05-18T10:47:41.305Z,36.28
2023-05-18T10:51:37.439Z,36.74
2023-05-18T10:55:37.258Z,36.51
2023-05-18T10:59:32.884Z,36.65
2023-05-18T11:03:31.910Z,36.77
2023-05-18T11:07:30.430Z,36.08
2023-05-18T11:11:32.364Z,36.32
2023-05-18T11:15:30.390Z,36.94
2023-05-18T11:19:31.572Z,36.94
2023-05-18T11:23:30.482Z,37.09
2023-05-18T11:27:32.478Z,37.36
2023-05-18T11:31:30.395Z,37.60
2023-05-18T11:35:31.917Z,37.80
2023-05-18T11:39:30.580Z,38.11
2023-05-18T11:43:32.324Z,38.12
2023-05-18T11:47:30.546Z,37.98
2023-05-18T11:51:32.295Z,37.77
2023-05-18T11:55:29.664Z,37.57
2023-05-18T11:59:31.374Z,37.71
2023-05-18T12:03:29.564Z,37.66
2023-05-18T12:07:31.164Z,37.48
2023-05-18T12:11:29.460Z,37.02
2023-05-18T12:15:30.846Z,36.30
2023-05-18T12:19:29.431Z,36.02
2023-05-18T12:23:31.048Z,35.92
2023-05-18T12:27:29.441Z,35.79
2023-05-18T12:31:30.904Z,35.60
2023-05-18T12:35:29.784Z,35.80
2023-05-18T12:39:31.883Z,36.21
2023-05-18T12:43:30.431Z,36.83
2023-05-18T12:47:32.092Z,37.50
2023-05-18T12:51:34.071Z,37.95
2023-05-18T12:55:35.649Z,38.24
2023-05-18T12:59:34.603Z,38.45
2023-05-18T13:03:37.878Z,38.63
2023-05-18T13:07:36.457Z,38.81
2023-05-18T13:11:37.873Z,38.87
2023-05-18T13:15:28.752Z,38.69
2023-05-18T13:19:21.762Z,38.54
2023-05-18T13:23:18.505Z,38.64
2023-05-18T13:27:20.048Z,38.83
2023-05-18T13:31:17.616Z,38.92
2023-05-18T13:35:19.033Z,38.78
2023-05-18T13:39:17.613Z,39.23
2023-05-18T13:43:19.099Z,39.31
2023-05-18T13:47:09.651Z,39.45
2023-05-18T13:51:02.161Z,39.53
2023-05-18T13:54:58.578Z,39.58
2023-05-18T13:59:00.122Z,39.79
2023-05-18T14:02:58.705Z,39.68
2023-05-18T14:07:00.247Z,39.41
2023-05-18T14:10:58.585Z,39.32
2023-05-18T14:15:00.124Z,39.24
2023-05-18T14:18:57.408Z,39.12
2023-05-18T14:22:49.982Z,39.33
2023-05-18T14:26:40.186Z,39.32
2023-05-18T14:30:38.616Z,39.34
2023-05-18T14:34:36.612Z,39.33
2023-05-18T14:38:37.186Z,38.98
2023-05-18T14:42:35.235Z,38.46
2023-05-18T14:46:35.107Z,37.95
2023-05-18T14:50:34.482Z,37.49
2023-05-18T14:54:27.295Z,37.14
2023-05-18T14:58:16.495Z,36.84
2023-05-18T15:02:13.637Z,36.59
2023-05-18T15:06:15.777Z,36.21
2023-05-18T15:10:18.974Z,35.90
2023-05-18T15:14:17.636Z,35.83
2023-05-18T15:18:19.066Z,35.83
2023-05-18T15:22:17.865Z,35.55
2023-05-18T15:26:19.358Z,35.31
2023-05-18T15:30:19.728Z,34.78
2023-05-18T15:34:20.649Z,34.19
2023-05-18T15:38:18.853Z,33.92
2023-05-18T15:42:20.202Z,33.24
2023-05-18T15:46:18.758Z,33.14
2023-05-18T15:50:20.259Z,32.89
2023-05-18T15:54:18.834Z,32.81
2023-05-18T15:58:20.370Z,32.86
2023-05-18T16:02:19.047Z,32.87
2023-05-18T16:06:20.819Z,32.80
2023-05-18T16:10:18.898Z,32.65
2023-05-18T16:14:20.778Z,32.53
2023-05-18T16:18:18.800Z,32.50
2023-05-18T16:22:20.542Z,32.54
2023-05-18T16:26:18.990Z,32.48
2023-05-18T16:30:20.265Z,31.99
2023-05-18T16:34:18.984Z,32.18
2023-05-18T16:38:20.394Z,31.94
2023-05-18T16:42:18.860Z,31.60
2023-05-18T16:46:20.308Z,31.34
2023-05-18T16:50:18.810Z,31.02
2023-05-18T16:54:20.498Z,30.84
2023-05-18T16:58:18.769Z,30.66
2023-05-18T17:02:21.034Z,30.34
2023-05-18T17:06:20.046Z,30.24
2023-05-18T17:10:19.132Z,30.08
2023-05-18T17:14:14.297Z,29.84
2023-05-18T17:18:13.675Z,29.56
2023-05-18T17:22:09.227Z,29.14
2023-05-18T17:26:08.698Z,28.71
2023-05-18T17:30:04.563Z,28.34
2023-05-18T17:34:03.730Z,28.20
2023-05-18T17:37:59.374Z,28.17
2023-05-18T17:41:59.056Z,28.05
2023-05-18T17:45:54.485Z,27.85
2023-05-18T17:49:53.641Z,27.84
2023-05-18T17:53:49.330Z,27.74
2023-05-18T17:57:48.634Z,27.46
2023-05-18T18:01:44.761Z,27.13
2023-05-18T18:05:44.139Z,26.85
2023-05-18T18:09:39.299Z,26.72
2023-05-18T18:13:35.077Z,26.58
2023-05-18T18:17:34.951Z,26.28
2023-05-18T18:21:30.451Z,25.91
2023-05-18T18:25:29.883Z,25.87
2023-05-18T18:29:25.202Z,25.78
2023-05-18T18:33:24.231Z,25.49
2023-05-18T18:37:19.100Z,25.38
2023-05-18T18:41:18.510Z,25.27
2023-05-18T18:45:14.601Z,25.21
2023-05-18T18:49:14.072Z,25.16
2023-05-18T18:53:09.313Z,25.07
2023-05-18T18:57:08.906Z,25.03
2023-05-18T19:01:04.213Z,24.75
2023-05-18T19:05:04.465Z,24.50
2023-05-18T19:09:05.975Z,24.35
2023-05-18T19:13:04.292Z,24.05
2023-05-18T19:17:06.168Z,24.20
2023-05-18T19:21:04.151Z,24.09
2023-05-18T19:25:05.772Z,24.03
2023-05-18T19:29:03.204Z,24.02
2023-05-18T19:33:04.646Z,23.98
2023-05-18T19:37:03.140Z,23.86
2023-05-18T19:41:04.736Z,23.70
2023-05-18T19:45:03.246Z,23.66
2023-05-18T19:49:04.997Z,23.63
2023-05-18T19:53:03.217Z,23.47
2023-05-18T19:57:04.605Z,23.40
2023-05-18T20:01:03.341Z,23.07
2023-05-18T20:05:05.226Z,23.04
2023-05-18T20:09:03.227Z,22.76
2023-05-18T20:13:04.813Z,22.47
2023-05-18T20:17:03.554Z,22.47
2023-05-18T20:21:05.301Z,22.48
2023-05-18T20:25:03.230Z,22.32
2023-05-18T20:29:05.206Z,22.05
2023-05-18T20:33:03.308Z,21.82
2023-05-18T20:37:05.397Z,21.56
2023-05-18T20:41:04.255Z,21.46
2023-05-18T20:45:05.816Z,21.49
2023-05-18T20:49:04.284Z,21.27
2023-05-18T20:53:05.854Z,21.34
2023-05-18T20:57:04.424Z,21.28
2023-05-18T21:01:06.231Z,21.12
2023-05-18T21:05:04.283Z,21.09
2023-05-18T21:09:05.913Z,20.96
2023-05-18T21:13:01.887Z,20.82
2023-05-18T21:17:01.139Z,20.72
2023-05-18T21:20:56.647Z,20.59
2023-05-18T21:24:56.004Z,20.50
2023-05-18T21:28:51.479Z,20.51
2023-05-18T21:32:50.989Z,20.39
2023-05-18T21:36:46.762Z,20.48
2023-05-18T21:40:46.054Z,20.28
2023-05-18T21:44:41.847Z,20.17
2023-05-18T21:48:41.338Z,19.99
2023-05-18T21:52:36.713Z,19.90
2023-05-18T21:56:36.357Z,19.84
2023-05-18T22:00:32.213Z,19.84
2023-05-18T22:04:31.725Z,19.88
2023-05-18T22:08:27.889Z,19.77
2023-05-18T22:12:26.888Z,19.23
2023-05-18T22:16:22.991Z,19.54
2023-05-18T22:20:22.375Z,19.86
2023-05-18T22:24:17.672Z,20.01
2023-05-18T22:28:17.088Z,19.97
2023-05-18T22:32:12.722Z,20.00
2023-05-18T22:36:12.376Z,19.97
2023-05-18T22:40:07.831Z,19.93
2023-05-18T22:44:07.258Z,19.93
2023-05-18T22:48:02.739Z,19.99
2023-05-18T22:52:02.266Z,20.10
2023-05-18T22:55:47.474Z,20.18
2023-05-18T22:59:32.736Z,20.26
2023-05-18T23:03:17.946Z,20.23
2023-05-18T23:06:09.237Z,20.24
2023-05-18T23:08:58.573Z,20.09
2023-05-18T23:11:48.600Z,20.02
2023-05-18T23:14:36.891Z,20.06
2023-05-18T23:17:26.828Z,20.09
2023-05-18T23:20:15.013Z,20.09
2023-05-18T23:23:03.097Z,20.16
2023-05-18T23:25:51.367Z,20.00
2023-05-18T23:28:39.386Z,19.96
2023-05-18T23:31:27.509Z,19.85
2023-05-18T23:34:15.564Z,19.77
2023-05-18T23:37:06.717Z,19.75
2023-05-18T23:39:54.917Z,19.68
2023-05-18T23:42:43.304Z,19.38
2023-05-18T23:45:31.767Z,19.51
2023-05-18T23:48:20.072Z,19.56
2023-05-18T23:51:08.414Z,19.39
2023-05-18T23:53:56.655Z,19.34
2023-05-18T23:56:45.018Z,19.31
2023-05-18T23:59:33.428Z,19.23
